Terminal Aerodrome Forecast
Issued by NWS

Home | Current Version | Previous Version | Text Only | Print | Product List | Glossary On
Versions: 1 2 3 4 5 6 7 8 9 10 11 12 13 14
000
FTUS45 KABQ 061133
TAFROW
TAF
KROW 061133Z 0612/0712 VRB06KT P6SM BKN150
     FM061900 25007KT P6SM FEW070 SCT150
     FM062300 31008KT P6SM VCTS SCT070CB BKN140
     FM070100 33009KT P6SM VCSH BKN070
     FM070400 03015KT P6SM VCTS BKN060CB
     FM070900 36012KT P6SM VCSH SCT025 BKN040=

USA.gov is the U.S. government's official web portal to all federal, state and local government web resources and services.